sensor_id;sensor_type;location;lat;lon;timestamp;P1;durP1;ratioP1;P2;durP2;ratioP2
16139;SDS011;8175;49.326;12.690;2022-12-31T00:01:48;11.33;;;9.53;;
16139;SDS011;8175;49.326;12.690;2022-12-31T00:04:14;11.37;;;10.17;;
16139;SDS011;8175;49.326;12.690;2022-12-31T00:06:40;12.50;;;9.73;;
16139;SDS011;8175;49.326;12.690;2022-12-31T00:09:06;12.70;;;8.87;;
16139;SDS011;8175;49.326;12.690;2022-12-31T00:11:32;12.53;;;10.37;;
16139;SDS011;8175;49.326;12.690;2022-12-31T00:13:59;12.10;;;10.13;;
16139;SDS011;8175;49.326;12.690;2022-12-31T00:16:30;11.23;;;9.50;;
16139;SDS011;8175;49.326;12.690;2022-12-31T00:18:58;10.97;;;9.70;;
16139;SDS011;8175;49.326;12.690;2022-12-31T00:21:25;12.23;;;9.77;;
16139;SDS011;8175;49.326;12.690;2022-12-31T00:23:52;11.73;;;9.93;;
16139;SDS011;8175;49.326;12.690;2022-12-31T00:26:19;12.13;;;9.73;;
16139;SDS011;8175;49.326;12.690;2022-12-31T00:28:48;10.37;;;9.10;;
16139;SDS011;8175;49.326;12.690;2022-12-31T00:31:18;11.03;;;9.70;;
16139;SDS011;8175;49.326;12.690;2022-12-31T00:33:46;11.50;;;10.03;;
16139;SDS011;8175;49.326;12.690;2022-12-31T00:36:13;10.67;;;9.57;;
16139;SDS011;8175;49.326;12.690;2022-12-31T00:38:43;10.50;;;9.30;;
16139;SDS011;8175;49.326;12.690;2022-12-31T00:41:12;11.40;;;9.50;;
16139;SDS011;8175;49.326;12.690;2022-12-31T00:43:39;10.47;;;8.90;;
16139;SDS011;8175;49.326;12.690;2022-12-31T00:46:05;12.53;;;10.23;;
16139;SDS011;8175;49.326;12.690;2022-12-31T00:48:31;10.50;;;8.97;;
16139;SDS011;8175;49.326;12.690;2022-12-31T00:50:58;10.53;;;9.30;;
16139;SDS011;8175;49.326;12.690;2022-12-31T00:53:25;10.07;;;8.87;;
16139;SDS011;8175;49.326;12.690;2022-12-31T00:55:51;10.53;;;9.37;;
16139;SDS011;8175;49.326;12.690;2022-12-31T00:58:23;9.83;;;8.77;;
16139;SDS011;8175;49.326;12.690;2022-12-31T01:00:48;9.03;;;8.13;;
16139;SDS011;8175;49.326;12.690;2022-12-31T01:03:14;10.67;;;8.63;;
16139;SDS011;8175;49.326;12.690;2022-12-31T01:05:39;10.10;;;8.33;;
16139;SDS011;8175;49.326;12.690;2022-12-31T01:08:05;8.27;;;7.43;;
16139;SDS011;8175;49.326;12.690;2022-12-31T01:10:31;9.93;;;7.87;;
16139;SDS011;8175;49.326;12.690;2022-12-31T01:13:15;9.17;;;8.27;;
16139;SDS011;8175;49.326;12.690;2022-12-31T01:15:40;8.93;;;8.03;;
16139;SDS011;8175;49.326;12.690;2022-12-31T01:18:06;9.07;;;8.20;;
16139;SDS011;8175;49.326;12.690;2022-12-31T01:20:36;12.03;;;8.97;;
16139;SDS011;8175;49.326;12.690;2022-12-31T01:23:04;9.87;;;8.87;;
16139;SDS011;8175;49.326;12.690;2022-12-31T01:25:33;10.83;;;9.63;;
16139;SDS011;8175;49.326;12.690;2022-12-31T01:28:03;11.67;;;10.10;;
16139;SDS011;8175;49.326;12.690;2022-12-31T01:30:30;12.63;;;9.83;;
16139;SDS011;8175;49.326;12.690;2022-12-31T01:32:56;10.67;;;9.57;;
16139;SDS011;8175;49.326;12.690;2022-12-31T01:35:22;11.23;;;10.13;;
16139;SDS011;8175;49.326;12.690;2022-12-31T01:37:48;11.33;;;9.93;;
16139;SDS011;8175;49.326;12.690;2022-12-31T01:40:13;11.53;;;10.27;;
16139;SDS011;8175;49.326;12.690;2022-12-31T01:42:39;10.23;;;9.07;;
16139;SDS011;8175;49.326;12.690;2022-12-31T01:45:08;9.77;;;8.77;;
16139;SDS011;8175;49.326;12.690;2022-12-31T01:47:37;11.50;;;8.43;;
16139;SDS011;8175;49.326;12.690;2022-12-31T01:50:17;9.03;;;8.07;;
16139;SDS011;8175;49.326;12.690;2022-12-31T01:52:47;9.80;;;7.73;;
16139;SDS011;8175;49.326;12.690;2022-12-31T01:57:50;8.00;;;7.00;;
16139;SDS011;8175;49.326;12.690;2022-12-31T02:00:20;9.10;;;6.97;;
16139;SDS011;8175;49.326;12.690;2022-12-31T02:02:45;9.47;;;6.63;;
16139;SDS011;8175;49.326;12.690;2022-12-31T02:05:21;6.63;;;6.00;;
16139;SDS011;8175;49.326;12.690;2022-12-31T02:07:47;6.40;;;5.80;;
16139;SDS011;8175;49.326;12.690;2022-12-31T02:10:13;7.27;;;6.47;;
16139;SDS011;8175;49.326;12.690;2022-12-31T02:12:39;7.10;;;6.30;;
16139;SDS011;8175;49.326;12.690;2022-12-31T02:15:05;7.77;;;6.13;;
16139;SDS011;8175;49.326;12.690;2022-12-31T02:17:33;7.37;;;6.20;;
16139;SDS011;8175;49.326;12.690;2022-12-31T02:31:45;4.80;;;4.33;;
16139;SDS011;8175;49.326;12.690;2022-12-31T02:34:30;5.27;;;4.77;;
16139;SDS011;8175;49.326;12.690;2022-12-31T02:37:02;5.10;;;4.60;;
16139;SDS011;8175;49.326;12.690;2022-12-31T02:39:34;6.27;;;5.17;;
16139;SDS011;8175;49.326;12.690;2022-12-31T02:42:01;6.03;;;5.47;;
16139;SDS011;8175;49.326;12.690;2022-12-31T02:44:30;6.13;;;5.53;;
16139;SDS011;8175;49.326;12.690;2022-12-31T02:47:07;5.50;;;5.00;;
16139;SDS011;8175;49.326;12.690;2022-12-31T03:00:28;6.87;;;5.27;;
16139;SDS011;8175;49.326;12.690;2022-12-31T03:03:15;6.27;;;5.50;;
16139;SDS011;8175;49.326;12.690;2022-12-31T03:05:43;6.23;;;5.63;;
16139;SDS011;8175;49.326;12.690;2022-12-31T03:08:10;8.30;;;6.33;;
16139;SDS011;8175;49.326;12.690;2022-12-31T03:10:44;5.90;;;5.30;;
16139;SDS011;8175;49.326;12.690;2022-12-31T03:13:09;6.10;;;5.50;;
16139;SDS011;8175;49.326;12.690;2022-12-31T03:15:35;5.03;;;4.50;;
16139;SDS011;8175;49.326;12.690;2022-12-31T03:18:02;5.43;;;4.77;;
16139;SDS011;8175;49.326;12.690;2022-12-31T03:23:30;4.70;;;4.30;;
16139;SDS011;8175;49.326;12.690;2022-12-31T03:26:00;4.87;;;4.43;;
16139;SDS011;8175;49.326;12.690;2022-12-31T03:28:27;4.80;;;4.20;;
16139;SDS011;8175;49.326;12.690;2022-12-31T03:30:56;4.10;;;3.70;;
16139;SDS011;8175;49.326;12.690;2022-12-31T03:33:24;4.20;;;3.83;;
16139;SDS011;8175;49.326;12.690;2022-12-31T03:35:53;3.90;;;3.37;;
16139;SDS011;8175;49.326;12.690;2022-12-31T03:38:19;4.63;;;3.53;;
16139;SDS011;8175;49.326;12.690;2022-12-31T03:40:46;6.67;;;3.60;;
16139;SDS011;8175;49.326;12.690;2022-12-31T03:43:14;3.53;;;3.23;;
16139;SDS011;8175;49.326;12.690;2022-12-31T03:45:39;3.57;;;3.27;;
16139;SDS011;8175;49.326;12.690;2022-12-31T03:48:06;3.67;;;3.13;;
16139;SDS011;8175;49.326;12.690;2022-12-31T03:50:34;2.93;;;2.70;;
16139;SDS011;8175;49.326;12.690;2022-12-31T03:53:00;3.17;;;2.60;;
16139;SDS011;8175;49.326;12.690;2022-12-31T03:55:26;2.53;;;2.33;;
16139;SDS011;8175;49.326;12.690;2022-12-31T03:57:51;4.10;;;2.80;;
16139;SDS011;8175;49.326;12.690;2022-12-31T04:00:18;4.93;;;2.77;;
16139;SDS011;8175;49.326;12.690;2022-12-31T04:02:45;2.97;;;1.90;;
16139;SDS011;8175;49.326;12.690;2022-12-31T04:05:12;2.47;;;2.00;;
16139;SDS011;8175;49.326;12.690;2022-12-31T04:07:38;2.27;;;2.07;;
16139;SDS011;8175;49.326;12.690;2022-12-31T04:10:05;1.90;;;1.80;;
16139;SDS011;8175;49.326;12.690;2022-12-31T04:12:31;1.73;;;1.63;;
16139;SDS011;8175;49.326;12.690;2022-12-31T04:14:57;1.83;;;1.60;;
16139;SDS011;8175;49.326;12.690;2022-12-31T04:17:23;2.00;;;1.83;;
16139;SDS011;8175;49.326;12.690;2022-12-31T04:19:49;1.80;;;1.70;;
16139;SDS011;8175;49.326;12.690;2022-12-31T04:22:15;1.90;;;1.80;;
16139;SDS011;8175;49.326;12.690;2022-12-31T04:24:41;2.20;;;1.87;;
16139;SDS011;8175;49.326;12.690;2022-12-31T04:27:07;1.57;;;1.47;;
16139;SDS011;8175;49.326;12.690;2022-12-31T04:29:34;1.73;;;1.63;;
16139;SDS011;8175;49.326;12.690;2022-12-31T04:32:00;1.97;;;1.70;;
16139;SDS011;8175;49.326;12.690;2022-12-31T04:34:26;1.77;;;1.63;;
16139;SDS011;8175;49.326;12.690;2022-12-31T04:36:51;2.03;;;1.40;;
16139;SDS011;8175;49.326;12.690;2022-12-31T04:39:17;1.80;;;1.70;;
16139;SDS011;8175;49.326;12.690;2022-12-31T04:41:43;1.30;;;1.20;;
16139;SDS011;8175;49.326;12.690;2022-12-31T04:44:08;1.67;;;1.50;;
16139;SDS011;8175;49.326;12.690;2022-12-31T04:46:34;2.50;;;1.30;;
16139;SDS011;8175;49.326;12.690;2022-12-31T04:49:00;1.70;;;1.30;;
16139;SDS011;8175;49.326;12.690;2022-12-31T04:51:26;1.40;;;1.30;;
16139;SDS011;8175;49.326;12.690;2022-12-31T04:53:53;1.40;;;1.30;;
16139;SDS011;8175;49.326;12.690;2022-12-31T04:56:19;1.47;;;1.20;;
16139;SDS011;8175;49.326;12.690;2022-12-31T04:58:45;3.23;;;1.53;;
16139;SDS011;8175;49.326;12.690;2022-12-31T05:01:10;1.90;;;1.50;;
16139;SDS011;8175;49.326;12.690;2022-12-31T05:03:36;1.60;;;1.50;;
16139;SDS011;8175;49.326;12.690;2022-12-31T05:06:04;1.50;;;1.37;;
16139;SDS011;8175;49.326;12.690;2022-12-31T05:08:31;2.07;;;1.40;;
16139;SDS011;8175;49.326;12.690;2022-12-31T05:10:57;2.27;;;1.10;;
16139;SDS011;8175;49.326;12.690;2022-12-31T05:13:23;1.27;;;1.17;;
16139;SDS011;8175;49.326;12.690;2022-12-31T05:15:49;1.20;;;1.10;;
16139;SDS011;8175;49.326;12.690;2022-12-31T05:18:15;1.87;;;1.30;;
16139;SDS011;8175;49.326;12.690;2022-12-31T05:20:41;1.20;;;1.10;;
16139;SDS011;8175;49.326;12.690;2022-12-31T05:23:07;1.10;;;1.00;;
16139;SDS011;8175;49.326;12.690;2022-12-31T05:25:33;2.23;;;1.40;;
16139;SDS011;8175;49.326;12.690;2022-12-31T05:27:59;2.10;;;1.27;;
16139;SDS011;8175;49.326;12.690;2022-12-31T05:30:25;1.20;;;1.10;;
16139;SDS011;8175;49.326;12.690;2022-12-31T05:32:50;1.40;;;1.20;;
16139;SDS011;8175;49.326;12.690;2022-12-31T05:35:16;1.73;;;1.20;;
16139;SDS011;8175;49.326;12.690;2022-12-31T05:37:42;1.13;;;1.03;;
16139;SDS011;8175;49.326;12.690;2022-12-31T05:40:08;1.20;;;1.03;;
16139;SDS011;8175;49.326;12.690;2022-12-31T05:42:34;1.43;;;1.27;;
16139;SDS011;8175;49.326;12.690;2022-12-31T05:45:00;1.20;;;1.10;;
16139;SDS011;8175;49.326;12.690;2022-12-31T05:47:26;1.23;;;1.13;;
16139;SDS011;8175;49.326;12.690;2022-12-31T05:49:52;1.13;;;1.07;;
16139;SDS011;8175;49.326;12.690;2022-12-31T05:52:17;1.50;;;1.00;;
16139;SDS011;8175;49.326;12.690;2022-12-31T05:54:43;1.30;;;1.20;;
16139;SDS011;8175;49.326;12.690;2022-12-31T05:57:09;1.07;;;0.83;;
16139;SDS011;8175;49.326;12.690;2022-12-31T05:59:35;1.40;;;1.20;;
16139;SDS011;8175;49.326;12.690;2022-12-31T06:02:00;3.23;;;1.13;;
16139;SDS011;8175;49.326;12.690;2022-12-31T06:04:26;1.80;;;1.30;;
16139;SDS011;8175;49.326;12.690;2022-12-31T06:06:52;4.13;;;1.00;;
16139;SDS011;8175;49.326;12.690;2022-12-31T06:09:18;0.80;;;0.80;;
16139;SDS011;8175;49.326;12.690;2022-12-31T06:11:43;0.97;;;0.97;;
16139;SDS011;8175;49.326;12.690;2022-12-31T06:14:10;1.30;;;0.87;;
16139;SDS011;8175;49.326;12.690;2022-12-31T06:16:35;0.80;;;0.80;;
16139;SDS011;8175;49.326;12.690;2022-12-31T06:19:01;1.10;;;1.00;;
16139;SDS011;8175;49.326;12.690;2022-12-31T06:21:27;1.73;;;0.77;;
16139;SDS011;8175;49.326;12.690;2022-12-31T06:23:54;1.00;;;0.90;;
16139;SDS011;8175;49.326;12.690;2022-12-31T06:26:19;1.20;;;1.10;;
16139;SDS011;8175;49.326;12.690;2022-12-31T06:28:45;0.90;;;0.90;;
16139;SDS011;8175;49.326;12.690;2022-12-31T06:31:11;0.93;;;0.93;;
16139;SDS011;8175;49.326;12.690;2022-12-31T06:33:39;1.00;;;0.90;;
16139;SDS011;8175;49.326;12.690;2022-12-31T06:36:06;0.97;;;0.90;;
16139;SDS011;8175;49.326;12.690;2022-12-31T06:38:35;1.20;;;0.80;;
16139;SDS011;8175;49.326;12.690;2022-12-31T06:41:03;0.97;;;0.87;;
16139;SDS011;8175;49.326;12.690;2022-12-31T06:43:29;1.80;;;1.00;;
16139;SDS011;8175;49.326;12.690;2022-12-31T06:45:55;1.47;;;0.90;;
16139;SDS011;8175;49.326;12.690;2022-12-31T06:48:24;0.80;;;0.80;;
16139;SDS011;8175;49.326;12.690;2022-12-31T06:50:50;0.97;;;0.93;;
16139;SDS011;8175;49.326;12.690;2022-12-31T06:53:15;0.93;;;0.93;;
16139;SDS011;8175;49.326;12.690;2022-12-31T06:55:41;2.33;;;1.53;;
16139;SDS011;8175;49.326;12.690;2022-12-31T06:58:10;1.00;;;0.90;;
16139;SDS011;8175;49.326;12.690;2022-12-31T07:00:38;4.50;;;2.47;;
16139;SDS011;8175;49.326;12.690;2022-12-31T07:03:18;2.03;;;1.53;;
16139;SDS011;8175;49.326;12.690;2022-12-31T07:06:01;4.20;;;1.87;;
16139;SDS011;8175;49.326;12.690;2022-12-31T07:11:21;1.03;;;0.93;;
16139;SDS011;8175;49.326;12.690;2022-12-31T07:14:04;1.17;;;0.97;;
16139;SDS011;8175;49.326;12.690;2022-12-31T07:16:37;0.90;;;0.90;;
16139;SDS011;8175;49.326;12.690;2022-12-31T07:19:15;1.47;;;1.00;;
16139;SDS011;8175;49.326;12.690;2022-12-31T07:21:52;1.10;;;1.00;;
16139;SDS011;8175;49.326;12.690;2022-12-31T07:24:22;1.20;;;1.10;;
16139;SDS011;8175;49.326;12.690;2022-12-31T07:29:29;0.90;;;0.90;;
16139;SDS011;8175;49.326;12.690;2022-12-31T07:32:09;1.00;;;0.90;;
16139;SDS011;8175;49.326;12.690;2022-12-31T07:40:17;2.17;;;2.07;;
16139;SDS011;8175;49.326;12.690;2022-12-31T07:45:45;7.90;;;7.07;;
16139;SDS011;8175;49.326;12.690;2022-12-31T07:48:21;1.50;;;1.40;;
16139;SDS011;8175;49.326;12.690;2022-12-31T07:50:49;2.17;;;1.87;;
16139;SDS011;8175;49.326;12.690;2022-12-31T07:53:16;1.73;;;1.30;;
16139;SDS011;8175;49.326;12.690;2022-12-31T07:55:42;0.90;;;0.90;;
16139;SDS011;8175;49.326;12.690;2022-12-31T07:58:14;1.10;;;0.97;;
16139;SDS011;8175;49.326;12.690;2022-12-31T08:00:59;1.00;;;0.97;;
16139;SDS011;8175;49.326;12.690;2022-12-31T08:11:17;0.80;;;0.80;;
16139;SDS011;8175;49.326;12.690;2022-12-31T08:14:04;1.33;;;0.63;;
16139;SDS011;8175;49.326;12.690;2022-12-31T08:16:34;1.47;;;0.60;;
16139;SDS011;8175;49.326;12.690;2022-12-31T08:19:00;1.00;;;0.90;;
16139;SDS011;8175;49.326;12.690;2022-12-31T08:24:21;4.00;;;2.80;;
16139;SDS011;8175;49.326;12.690;2022-12-31T08:27:14;1.10;;;0.80;;
16139;SDS011;8175;49.326;12.690;2022-12-31T08:30:09;0.77;;;0.77;;
16139;SDS011;8175;49.326;12.690;2022-12-31T08:32:40;2.00;;;1.63;;
16139;SDS011;8175;49.326;12.690;2022-12-31T08:46:45;1.40;;;1.20;;
16139;SDS011;8175;49.326;12.690;2022-12-31T08:49:32;1.00;;;0.90;;
16139;SDS011;8175;49.326;12.690;2022-12-31T08:51:59;1.43;;;0.80;;
16139;SDS011;8175;49.326;12.690;2022-12-31T08:54:26;2.77;;;1.90;;
16139;SDS011;8175;49.326;12.690;2022-12-31T08:59:51;2.03;;;1.17;;
16139;SDS011;8175;49.326;12.690;2022-12-31T09:02:37;1.73;;;0.83;;
16139;SDS011;8175;49.326;12.690;2022-12-31T09:05:31;1.03;;;0.60;;
16139;SDS011;8175;49.326;12.690;2022-12-31T09:10:58;0.70;;;0.70;;
16139;SDS011;8175;49.326;12.690;2022-12-31T09:16:19;0.90;;;0.90;;
16139;SDS011;8175;49.326;12.690;2022-12-31T09:18:58;0.87;;;0.77;;
16139;SDS011;8175;49.326;12.690;2022-12-31T09:21:24;1.67;;;0.60;;
16139;SDS011;8175;49.326;12.690;2022-12-31T09:23:50;0.60;;;0.60;;
16139;SDS011;8175;49.326;12.690;2022-12-31T09:26:34;0.73;;;0.70;;
16139;SDS011;8175;49.326;12.690;2022-12-31T09:31:53;0.60;;;0.60;;
16139;SDS011;8175;49.326;12.690;2022-12-31T09:40:09;0.87;;;0.60;;
16139;SDS011;8175;49.326;12.690;2022-12-31T09:55:35;1.70;;;0.90;;
16139;SDS011;8175;49.326;12.690;2022-12-31T10:04:24;0.67;;;0.67;;
16139;SDS011;8175;49.326;12.690;2022-12-31T10:12:22;1.37;;;1.00;;
16139;SDS011;8175;49.326;12.690;2022-12-31T10:15:34;0.80;;;0.80;;
16139;SDS011;8175;49.326;12.690;2022-12-31T10:18:35;1.17;;;1.07;;
16139;SDS011;8175;49.326;12.690;2022-12-31T10:24:04;1.10;;;0.90;;
16139;SDS011;8175;49.326;12.690;2022-12-31T10:26:41;1.97;;;0.80;;
16139;SDS011;8175;49.326;12.690;2022-12-31T10:43:30;1.60;;;1.33;;
16139;SDS011;8175;49.326;12.690;2022-12-31T10:48:58;1.00;;;1.00;;
16139;SDS011;8175;49.326;12.690;2022-12-31T11:00:19;1.47;;;1.20;;
16139;SDS011;8175;49.326;12.690;2022-12-31T11:03:07;1.17;;;0.83;;
16139;SDS011;8175;49.326;12.690;2022-12-31T11:39:33;1.33;;;0.80;;
16139;SDS011;8175;49.326;12.690;2022-12-31T11:48:14;0.80;;;0.77;;
16139;SDS011;8175;49.326;12.690;2022-12-31T11:58:44;2.67;;;1.50;;
16139;SDS011;8175;49.326;12.690;2022-12-31T12:03:48;0.70;;;0.70;;
16139;SDS011;8175;49.326;12.690;2022-12-31T12:06:16;1.30;;;1.20;;
16139;SDS011;8175;49.326;12.690;2022-12-31T12:08:47;3.90;;;2.70;;
16139;SDS011;8175;49.326;12.690;2022-12-31T12:11:19;0.77;;;0.67;;
16139;SDS011;8175;49.326;12.690;2022-12-31T12:13:48;2.10;;;1.40;;
16139;SDS011;8175;49.326;12.690;2022-12-31T12:16:13;1.97;;;1.40;;
16139;SDS011;8175;49.326;12.690;2022-12-31T12:18:43;3.60;;;1.77;;
16139;SDS011;8175;49.326;12.690;2022-12-31T12:21:12;1.07;;;0.60;;
16139;SDS011;8175;49.326;12.690;2022-12-31T12:23:38;1.20;;;0.87;;
16139;SDS011;8175;49.326;12.690;2022-12-31T12:26:06;4.27;;;2.93;;
16139;SDS011;8175;49.326;12.690;2022-12-31T12:28:49;1.63;;;1.30;;
16139;SDS011;8175;49.326;12.690;2022-12-31T12:31:19;19.93;;;15.17;;
16139;SDS011;8175;49.326;12.690;2022-12-31T12:33:48;10.00;;;5.83;;
16139;SDS011;8175;49.326;12.690;2022-12-31T12:36:16;7.00;;;3.73;;
16139;SDS011;8175;49.326;12.690;2022-12-31T12:38:43;0.90;;;0.90;;
16139;SDS011;8175;49.326;12.690;2022-12-31T12:41:11;0.43;;;0.43;;
16139;SDS011;8175;49.326;12.690;2022-12-31T12:43:49;2.50;;;0.97;;
16139;SDS011;8175;49.326;12.690;2022-12-31T12:46:33;0.43;;;0.43;;
16139;SDS011;8175;49.326;12.690;2022-12-31T12:49:03;1.80;;;1.20;;
16139;SDS011;8175;49.326;12.690;2022-12-31T12:51:48;3.83;;;1.80;;
16139;SDS011;8175;49.326;12.690;2022-12-31T13:02:23;1.47;;;1.37;;
16139;SDS011;8175;49.326;12.690;2022-12-31T13:13:07;0.67;;;0.67;;
16139;SDS011;8175;49.326;12.690;2022-12-31T13:18:42;0.60;;;0.60;;
16139;SDS011;8175;49.326;12.690;2022-12-31T13:27:10;0.50;;;0.50;;
16139;SDS011;8175;49.326;12.690;2022-12-31T13:29:37;1.70;;;1.60;;
16139;SDS011;8175;49.326;12.690;2022-12-31T13:32:06;0.67;;;0.60;;
16139;SDS011;8175;49.326;12.690;2022-12-31T13:34:37;3.80;;;0.90;;
16139;SDS011;8175;49.326;12.690;2022-12-31T13:37:13;1.73;;;0.60;;
16139;SDS011;8175;49.326;12.690;2022-12-31T13:40:02;1.10;;;0.80;;
16139;SDS011;8175;49.326;12.690;2022-12-31T13:42:45;1.13;;;0.87;;
16139;SDS011;8175;49.326;12.690;2022-12-31T13:45:21;0.70;;;0.70;;
16139;SDS011;8175;49.326;12.690;2022-12-31T13:50:41;1.27;;;0.90;;
16139;SDS011;8175;49.326;12.690;2022-12-31T13:53:23;2.70;;;0.80;;
16139;SDS011;8175;49.326;12.690;2022-12-31T13:55:56;1.73;;;0.73;;
16139;SDS011;8175;49.326;12.690;2022-12-31T13:58:44;0.90;;;0.80;;
16139;SDS011;8175;49.326;12.690;2022-12-31T14:01:25;0.60;;;0.60;;
16139;SDS011;8175;49.326;12.690;2022-12-31T14:04:10;0.97;;;0.50;;
16139;SDS011;8175;49.326;12.690;2022-12-31T14:06:51;0.53;;;0.53;;
16139;SDS011;8175;49.326;12.690;2022-12-31T14:09:29;1.37;;;0.70;;
16139;SDS011;8175;49.326;12.690;2022-12-31T14:16:58;1.10;;;1.00;;
16139;SDS011;8175;49.326;12.690;2022-12-31T14:19:54;4.67;;;2.57;;
16139;SDS011;8175;49.326;12.690;2022-12-31T14:22:46;1.63;;;0.80;;
16139;SDS011;8175;49.326;12.690;2022-12-31T14:25:28;1.27;;;1.10;;
16139;SDS011;8175;49.326;12.690;2022-12-31T14:27:56;4.87;;;2.20;;
16139;SDS011;8175;49.326;12.690;2022-12-31T14:30:27;4.60;;;2.90;;
16139;SDS011;8175;49.326;12.690;2022-12-31T14:43:43;1.87;;;0.80;;
16139;SDS011;8175;49.326;12.690;2022-12-31T14:47:12;1.77;;;1.30;;
16139;SDS011;8175;49.326;12.690;2022-12-31T14:57:37;2.07;;;1.70;;
16139;SDS011;8175;49.326;12.690;2022-12-31T15:05:48;2.77;;;1.97;;
16139;SDS011;8175;49.326;12.690;2022-12-31T15:14:20;4.93;;;2.97;;
16139;SDS011;8175;49.326;12.690;2022-12-31T15:22:42;7.20;;;4.07;;
16139;SDS011;8175;49.326;12.690;2022-12-31T15:28:01;5.33;;;3.70;;
16139;SDS011;8175;49.326;12.690;2022-12-31T15:30:47;2.77;;;1.60;;
16139;SDS011;8175;49.326;12.690;2022-12-31T15:33:17;2.87;;;1.90;;
16139;SDS011;8175;49.326;12.690;2022-12-31T15:35:49;2.03;;;1.30;;
16139;SDS011;8175;49.326;12.690;2022-12-31T15:38:28;1.10;;;1.00;;
16139;SDS011;8175;49.326;12.690;2022-12-31T15:40:57;1.50;;;1.30;;
16139;SDS011;8175;49.326;12.690;2022-12-31T15:45:49;3.97;;;3.50;;
16139;SDS011;8175;49.326;12.690;2022-12-31T15:48:19;4.27;;;2.70;;
16139;SDS011;8175;49.326;12.690;2022-12-31T15:50:56;2.67;;;2.00;;
16139;SDS011;8175;49.326;12.690;2022-12-31T15:53:35;4.23;;;2.23;;
16139;SDS011;8175;49.326;12.690;2022-12-31T15:56:05;2.93;;;1.47;;
16139;SDS011;8175;49.326;12.690;2022-12-31T15:58:33;1.97;;;1.50;;
16139;SDS011;8175;49.326;12.690;2022-12-31T16:03:46;2.07;;;1.80;;
16139;SDS011;8175;49.326;12.690;2022-12-31T16:06:18;1.77;;;1.10;;
16139;SDS011;8175;49.326;12.690;2022-12-31T16:08:44;3.20;;;2.47;;
16139;SDS011;8175;49.326;12.690;2022-12-31T16:11:12;2.93;;;2.47;;
16139;SDS011;8175;49.326;12.690;2022-12-31T16:13:46;1.40;;;1.30;;
16139;SDS011;8175;49.326;12.690;2022-12-31T16:18:54;1.40;;;1.20;;
16139;SDS011;8175;49.326;12.690;2022-12-31T16:21:31;0.87;;;0.80;;
16139;SDS011;8175;49.326;12.690;2022-12-31T16:24:01;4.50;;;1.90;;
16139;SDS011;8175;49.326;12.690;2022-12-31T16:26:33;2.80;;;2.57;;
16139;SDS011;8175;49.326;12.690;2022-12-31T16:29:15;2.17;;;2.00;;
16139;SDS011;8175;49.326;12.690;2022-12-31T16:31:43;1.10;;;1.00;;
16139;SDS011;8175;49.326;12.690;2022-12-31T16:34:11;2.40;;;1.00;;
16139;SDS011;8175;49.326;12.690;2022-12-31T16:36:39;1.27;;;1.17;;
16139;SDS011;8175;49.326;12.690;2022-12-31T16:41:49;1.17;;;0.90;;
16139;SDS011;8175;49.326;12.690;2022-12-31T16:44:25;1.33;;;1.23;;
16139;SDS011;8175;49.326;12.690;2022-12-31T16:46:54;1.30;;;1.20;;
16139;SDS011;8175;49.326;12.690;2022-12-31T16:49:22;1.50;;;1.40;;
16139;SDS011;8175;49.326;12.690;2022-12-31T16:51:49;2.60;;;2.20;;
16139;SDS011;8175;49.326;12.690;2022-12-31T16:54:18;5.97;;;4.63;;
16139;SDS011;8175;49.326;12.690;2022-12-31T16:56:49;3.67;;;2.23;;
16139;SDS011;8175;49.326;12.690;2022-12-31T17:01:47;1.20;;;1.10;;
16139;SDS011;8175;49.326;12.690;2022-12-31T17:04:15;1.37;;;1.23;;
16139;SDS011;8175;49.326;12.690;2022-12-31T17:06:43;1.30;;;0.93;;
16139;SDS011;8175;49.326;12.690;2022-12-31T17:09:12;2.73;;;2.00;;
16139;SDS011;8175;49.326;12.690;2022-12-31T17:14:14;1.20;;;1.10;;
16139;SDS011;8175;49.326;12.690;2022-12-31T17:16:58;1.63;;;1.53;;
16139;SDS011;8175;49.326;12.690;2022-12-31T17:19:39;1.23;;;1.10;;
16139;SDS011;8175;49.326;12.690;2022-12-31T17:22:08;1.13;;;1.03;;
16139;SDS011;8175;49.326;12.690;2022-12-31T17:24:41;1.10;;;1.00;;
16139;SDS011;8175;49.326;12.690;2022-12-31T17:27:07;7.30;;;4.03;;
16139;SDS011;8175;49.326;12.690;2022-12-31T17:29:33;6.40;;;4.50;;
16139;SDS011;8175;49.326;12.690;2022-12-31T17:32:03;4.17;;;2.73;;
16139;SDS011;8175;49.326;12.690;2022-12-31T17:34:37;2.10;;;1.70;;
16139;SDS011;8175;49.326;12.690;2022-12-31T17:37:16;3.93;;;2.20;;
16139;SDS011;8175;49.326;12.690;2022-12-31T17:42:31;1.57;;;1.47;;
16139;SDS011;8175;49.326;12.690;2022-12-31T17:45:00;7.03;;;2.60;;
16139;SDS011;8175;49.326;12.690;2022-12-31T17:47:33;7.97;;;3.63;;
16139;SDS011;8175;49.326;12.690;2022-12-31T17:50:20;3.17;;;1.87;;
16139;SDS011;8175;49.326;12.690;2022-12-31T17:52:47;11.13;;;4.40;;
16139;SDS011;8175;49.326;12.690;2022-12-31T17:55:14;17.17;;;7.63;;
16139;SDS011;8175;49.326;12.690;2022-12-31T17:57:43;5.60;;;3.53;;
16139;SDS011;8175;49.326;12.690;2022-12-31T18:00:16;3.40;;;1.73;;
16139;SDS011;8175;49.326;12.690;2022-12-31T18:02:44;6.87;;;4.20;;
16139;SDS011;8175;49.326;12.690;2022-12-31T18:05:13;15.27;;;5.90;;
16139;SDS011;8175;49.326;12.690;2022-12-31T18:07:43;2.93;;;1.53;;
16139;SDS011;8175;49.326;12.690;2022-12-31T18:10:11;7.13;;;2.63;;
16139;SDS011;8175;49.326;12.690;2022-12-31T18:12:37;16.23;;;6.27;;
16139;SDS011;8175;49.326;12.690;2022-12-31T18:15:04;11.07;;;4.80;;
16139;SDS011;8175;49.326;12.690;2022-12-31T18:17:30;5.43;;;2.13;;
16139;SDS011;8175;49.326;12.690;2022-12-31T18:19:57;31.90;;;11.10;;
16139;SDS011;8175;49.326;12.690;2022-12-31T18:22:23;24.40;;;8.57;;
16139;SDS011;8175;49.326;12.690;2022-12-31T18:24:50;20.90;;;8.20;;
16139;SDS011;8175;49.326;12.690;2022-12-31T18:27:20;51.20;;;18.17;;
16139;SDS011;8175;49.326;12.690;2022-12-31T18:29:46;24.67;;;9.80;;
16139;SDS011;8175;49.326;12.690;2022-12-31T18:32:24;7.03;;;4.80;;
16139;SDS011;8175;49.326;12.690;2022-12-31T18:34:52;2.70;;;1.67;;
16139;SDS011;8175;49.326;12.690;2022-12-31T18:37:18;2.50;;;1.87;;
16139;SDS011;8175;49.326;12.690;2022-12-31T18:39:45;9.77;;;4.30;;
16139;SDS011;8175;49.326;12.690;2022-12-31T18:42:11;2.23;;;1.60;;
16139;SDS011;8175;49.326;12.690;2022-12-31T18:44:41;0.70;;;0.70;;
16139;SDS011;8175;49.326;12.690;2022-12-31T18:47:14;3.50;;;1.67;;
16139;SDS011;8175;49.326;12.690;2022-12-31T18:49:42;7.30;;;4.03;;
16139;SDS011;8175;49.326;12.690;2022-12-31T18:52:13;2.97;;;2.53;;
16139;SDS011;8175;49.326;12.690;2022-12-31T18:54:44;1.50;;;1.40;;
16139;SDS011;8175;49.326;12.690;2022-12-31T18:57:10;1.27;;;1.17;;
16139;SDS011;8175;49.326;12.690;2022-12-31T18:59:36;1.53;;;1.43;;
16139;SDS011;8175;49.326;12.690;2022-12-31T19:02:03;11.67;;;5.80;;
16139;SDS011;8175;49.326;12.690;2022-12-31T19:04:29;5.50;;;3.23;;
16139;SDS011;8175;49.326;12.690;2022-12-31T19:06:55;3.90;;;2.00;;
16139;SDS011;8175;49.326;12.690;2022-12-31T19:09:21;11.10;;;4.23;;
16139;SDS011;8175;49.326;12.690;2022-12-31T19:11:47;22.73;;;7.87;;
16139;SDS011;8175;49.326;12.690;2022-12-31T19:16:46;7.97;;;3.80;;
16139;SDS011;8175;49.326;12.690;2022-12-31T19:19:13;1.00;;;0.90;;
16139;SDS011;8175;49.326;12.690;2022-12-31T19:21:39;7.73;;;3.50;;
16139;SDS011;8175;49.326;12.690;2022-12-31T19:24:16;7.43;;;3.20;;
16139;SDS011;8175;49.326;12.690;2022-12-31T19:26:44;5.27;;;3.30;;
16139;SDS011;8175;49.326;12.690;2022-12-31T19:29:13;21.77;;;12.63;;
16139;SDS011;8175;49.326;12.690;2022-12-31T19:31:46;7.60;;;5.97;;
16139;SDS011;8175;49.326;12.690;2022-12-31T19:34:12;3.30;;;2.70;;
16139;SDS011;8175;49.326;12.690;2022-12-31T19:36:38;3.10;;;2.80;;
16139;SDS011;8175;49.326;12.690;2022-12-31T19:39:05;0.80;;;0.80;;
16139;SDS011;8175;49.326;12.690;2022-12-31T19:41:34;3.13;;;2.53;;
16139;SDS011;8175;49.326;12.690;2022-12-31T19:43:59;2.43;;;1.40;;